createdAt,value
2023-01-30T00:01:58.195Z,17.40
2023-01-30T00:04:25.986Z,19.63
2023-01-30T00:06:53.432Z,19.42
2023-01-30T00:09:21.287Z,21.30
2023-01-30T00:11:48.706Z,23.92
2023-01-30T00:14:16.553Z,21.50
2023-01-30T00:16:44.120Z,17.13
2023-01-30T00:19:11.935Z,17.08
2023-01-30T00:21:39.547Z,15.18
2023-01-30T00:24:07.938Z,26.23
2023-01-30T00:26:35.448Z,22.48
2023-01-30T00:29:03.354Z,18.25
2023-01-30T00:31:31.510Z,20.13
2023-01-30T00:33:59.360Z,19.35
2023-01-30T00:36:26.939Z,20.30
2023-01-30T00:38:58.625Z,27.90
2023-01-30T00:41:46.302Z,23.85
2023-01-30T00:44:32.582Z,18.20
2023-01-30T00:47:06.264Z,19.80
2023-01-30T00:49:34.368Z,25.02
2023-01-30T00:52:02.427Z,22.17
2023-01-30T00:54:31.093Z,19.75
2023-01-30T00:56:59.550Z,18.75
2023-01-30T00:59:28.280Z,20.42
2023-01-30T01:01:55.967Z,16.05
2023-01-30T01:04:23.830Z,19.27
2023-01-30T01:06:51.290Z,16.55
2023-01-30T01:09:19.239Z,17.13
2023-01-30T01:11:46.781Z,17.98
2023-01-30T01:14:15.040Z,13.13
2023-01-30T01:16:42.700Z,15.98
2023-01-30T01:19:10.503Z,13.80
2023-01-30T01:21:38.023Z,12.43
2023-01-30T01:24:06.568Z,13.75
2023-01-30T01:26:34.425Z,13.57
2023-01-30T01:29:03.621Z,14.52
2023-01-30T01:31:31.770Z,10.88
2023-01-30T01:33:59.614Z,13.30
2023-01-30T01:36:52.156Z,16.83
2023-01-30T01:39:14.967Z,15.32
2023-01-30T01:41:42.929Z,12.77
2023-01-30T01:44:17.299Z,14.65
2023-01-30T01:46:57.961Z,13.35
2023-01-30T01:49:34.717Z,12.15
2023-01-30T01:52:15.876Z,16.23
2023-01-30T01:54:54.830Z,16.40
2023-01-30T01:57:54.220Z,15.48
2023-01-30T02:00:24.364Z,12.95
2023-01-30T02:03:01.844Z,11.95
2023-01-30T02:05:40.885Z,14.90
2023-01-30T02:08:19.193Z,12.30
2023-01-30T02:11:11.893Z,12.47
2023-01-30T02:13:39.599Z,15.73
2023-01-30T02:16:09.228Z,13.95
2023-01-30T02:18:42.066Z,14.88
2023-01-30T02:21:52.156Z,11.60
2023-01-30T02:24:51.609Z,15.43
2023-01-30T02:27:35.134Z,16.20
2023-01-30T02:30:22.441Z,16.00
2023-01-30T02:33:32.634Z,16.52
2023-01-30T02:36:24.952Z,16.55
2023-01-30T02:39:08.897Z,28.95
2023-01-30T02:41:57.887Z,14.43
2023-01-30T02:47:10.114Z,19.63
2023-01-30T02:50:14.284Z,15.75
2023-01-30T02:52:42.613Z,14.65
2023-01-30T02:55:26.826Z,13.17
2023-01-30T02:57:56.084Z,17.40
2023-01-30T03:03:24.418Z,16.85
2023-01-30T03:06:10.072Z,18.42
2023-01-30T03:09:07.819Z,20.65
2023-01-30T03:12:08.081Z,16.52
2023-01-30T03:15:05.301Z,17.70
2023-01-30T03:17:35.318Z,21.27
2023-01-30T03:20:04.358Z,20.92
2023-01-30T03:22:33.481Z,19.35
2023-01-30T03:25:01.197Z,21.67
2023-01-30T03:27:29.455Z,20.00
2023-01-30T03:29:57.957Z,18.95
2023-01-30T03:32:26.226Z,25.52
2023-01-30T03:34:53.703Z,24.67
2023-01-30T03:37:21.690Z,16.85
2023-01-30T03:39:49.653Z,20.17
2023-01-30T03:42:17.625Z,22.02
2023-01-30T03:44:45.080Z,19.80
2023-01-30T03:47:12.922Z,24.63
2023-01-30T03:49:40.789Z,20.52
2023-01-30T03:52:08.698Z,18.92
2023-01-30T03:54:36.258Z,24.30
2023-01-30T03:57:04.632Z,24.90
2023-01-30T03:59:32.360Z,21.13
2023-01-30T04:02:06.611Z,20.15
2023-01-30T04:04:34.859Z,19.25
2023-01-30T04:07:04.587Z,20.20
2023-01-30T04:09:33.652Z,19.23
2023-01-30T04:12:02.926Z,19.33
2023-01-30T04:14:35.877Z,23.17
2023-01-30T04:17:26.540Z,24.60
2023-01-30T04:20:29.085Z,24.65
2023-01-30T04:22:58.103Z,20.83
2023-01-30T04:25:27.547Z,20.60
2023-01-30T04:27:55.685Z,20.55
2023-01-30T04:30:27.663Z,20.83
2023-01-30T04:33:07.845Z,20.08
2023-01-30T04:35:35.526Z,17.45
2023-01-30T04:38:03.446Z,18.40
2023-01-30T04:40:31.076Z,18.63
2023-01-30T04:42:58.941Z,16.25
2023-01-30T04:46:01.591Z,22.30
2023-01-30T04:48:30.849Z,24.52
2023-01-30T04:51:00.879Z,22.50
2023-01-30T04:53:29.341Z,22.52
2023-01-30T04:55:57.828Z,15.77
2023-01-30T04:58:25.769Z,21.38
2023-01-30T05:00:53.763Z,19.77
2023-01-30T05:03:21.654Z,20.40
2023-01-30T05:05:49.271Z,19.20
2023-01-30T05:08:17.248Z,23.90
2023-01-30T05:10:44.799Z,24.83
2023-01-30T05:13:13.034Z,23.52
2023-01-30T05:15:40.910Z,17.33
2023-01-30T05:18:08.812Z,18.48
2023-01-30T05:20:36.332Z,14.95
2023-01-30T05:23:04.173Z,18.02
2023-01-30T05:25:31.930Z,19.52
2023-01-30T05:28:00.189Z,17.05
2023-01-30T05:30:27.769Z,15.05
2023-01-30T05:32:58.864Z,16.42
2023-01-30T05:35:26.311Z,15.68
2023-01-30T05:37:54.106Z,20.05
2023-01-30T05:40:21.531Z,11.55
2023-01-30T05:42:49.437Z,17.38
2023-01-30T05:45:17.341Z,15.90
2023-01-30T05:47:45.344Z,16.05
2023-01-30T05:50:12.894Z,14.13
2023-01-30T05:52:40.997Z,15.50
2023-01-30T05:55:09.223Z,19.35
2023-01-30T05:57:36.993Z,16.73
2023-01-30T06:00:06.493Z,16.13
2023-01-30T06:02:41.497Z,14.77
2023-01-30T06:05:09.529Z,12.85
2023-01-30T06:07:37.338Z,10.95
2023-01-30T06:10:05.280Z,14.27
2023-01-30T06:12:33.455Z,15.73
2023-01-30T06:15:00.982Z,13.60
2023-01-30T06:17:29.987Z,19.38
2023-01-30T06:19:57.594Z,19.77
2023-01-30T06:22:25.304Z,16.77
2023-01-30T06:24:52.848Z,22.13
2023-01-30T06:27:20.809Z,22.35
2023-01-30T06:29:48.275Z,14.65
2023-01-30T06:32:16.069Z,15.25
2023-01-30T06:34:43.590Z,17.65
2023-01-30T06:37:11.403Z,14.52
2023-01-30T06:39:38.987Z,11.85
2023-01-30T06:42:07.282Z,14.32
2023-01-30T06:44:34.753Z,12.32
2023-01-30T06:47:02.650Z,16.48
2023-01-30T06:49:30.339Z,10.82
2023-01-30T06:51:58.486Z,9.95
2023-01-30T06:54:26.058Z,10.75
2023-01-30T06:56:54.308Z,9.38
2023-01-30T06:59:21.857Z,11.90
2023-01-30T07:01:49.961Z,10.13
2023-01-30T07:04:17.623Z,8.90
2023-01-30T07:06:46.916Z,9.80
2023-01-30T07:09:14.615Z,11.05
2023-01-30T07:11:42.561Z,12.85
2023-01-30T07:14:10.472Z,12.48
2023-01-30T07:16:38.366Z,11.52
2023-01-30T07:19:05.844Z,16.48
2023-01-30T07:21:33.656Z,12.07
2023-01-30T07:24:01.202Z,11.30
2023-01-30T07:26:31.306Z,8.93
2023-01-30T07:28:59.183Z,11.48
2023-01-30T07:31:27.216Z,7.93
2023-01-30T07:33:54.802Z,11.38
2023-01-30T07:36:22.621Z,9.00
2023-01-30T07:38:50.026Z,12.45
2023-01-30T07:41:17.753Z,16.98
2023-01-30T07:43:45.274Z,13.35
2023-01-30T07:46:13.080Z,10.05
2023-01-30T07:48:40.542Z,12.80
2023-01-30T07:51:08.411Z,12.38
2023-01-30T07:53:35.837Z,9.65
2023-01-30T07:56:14.210Z,9.57
2023-01-30T07:58:41.865Z,8.05
2023-01-30T08:01:09.851Z,11.15
2023-01-30T08:03:37.393Z,10.80
2023-01-30T08:06:05.483Z,9.07
2023-01-30T08:08:33.013Z,14.23
2023-01-30T08:11:00.975Z,8.85
2023-01-30T08:13:28.363Z,10.80
2023-01-30T08:16:00.285Z,12.40
2023-01-30T08:18:33.521Z,6.15
2023-01-30T08:21:04.769Z,6.50
2023-01-30T08:23:34.033Z,5.72
2023-01-30T08:28:31.540Z,7.63
2023-01-30T08:30:59.820Z,7.10
2023-01-30T08:33:27.797Z,7.90
2023-01-30T08:35:57.236Z,7.72
2023-01-30T08:38:24.805Z,11.45
2023-01-30T08:40:52.813Z,9.82
2023-01-30T08:43:20.665Z,15.77
2023-01-30T08:45:48.704Z,12.52
2023-01-30T08:48:16.257Z,7.47
2023-01-30T08:50:44.201Z,7.80
2023-01-30T08:53:11.907Z,7.85
2023-01-30T08:55:39.976Z,7.03
2023-01-30T08:58:07.642Z,8.90
2023-01-30T09:00:35.531Z,13.43
2023-01-30T09:03:03.163Z,12.88
2023-01-30T09:05:31.052Z,16.20
2023-01-30T09:07:58.785Z,10.32
2023-01-30T09:10:26.574Z,10.82
2023-01-30T09:12:54.001Z,11.75
2023-01-30T09:15:21.914Z,12.95
2023-01-30T09:17:49.562Z,9.38
2023-01-30T09:20:19.095Z,10.07
2023-01-30T09:25:15.459Z,8.98
2023-01-30T09:27:44.604Z,10.25
2023-01-30T09:32:40.273Z,14.18
2023-01-30T09:35:08.677Z,12.43
2023-01-30T09:37:36.255Z,10.98
2023-01-30T09:40:05.316Z,12.20
2023-01-30T09:43:00.226Z,7.63
2023-01-30T09:45:38.316Z,8.13
2023-01-30T09:48:32.792Z,6.80
2023-01-30T09:51:26.280Z,8.32
2023-01-30T09:54:16.909Z,7.70
2023-01-30T09:56:44.947Z,7.38
2023-01-30T09:59:34.698Z,9.85
2023-01-30T10:02:44.959Z,7.75
2023-01-30T10:05:13.236Z,9.65
2023-01-30T10:08:06.217Z,9.77
2023-01-30T10:11:09.621Z,8.90
2023-01-30T10:14:04.817Z,16.38
2023-01-30T10:16:44.360Z,8.38
2023-01-30T10:19:35.177Z,11.55
2023-01-30T10:22:28.447Z,9.82
2023-01-30T10:25:32.837Z,10.15
2023-01-30T10:28:21.090Z,11.13
2023-01-30T10:30:56.424Z,6.03
2023-01-30T10:33:40.815Z,14.02
2023-01-30T10:36:18.654Z,16.52
2023-01-30T10:38:54.924Z,9.23
2023-01-30T10:41:38.852Z,13.32
2023-01-30T10:44:13.217Z,13.52
2023-01-30T10:47:47.699Z,10.95
2023-01-30T10:50:26.947Z,9.48
2023-01-30T10:53:17.185Z,11.98
2023-01-30T10:55:48.790Z,9.68
2023-01-30T10:58:41.430Z,13.18
2023-01-30T11:01:47.830Z,9.70
2023-01-30T11:04:34.293Z,14.63
2023-01-30T11:07:03.125Z,12.32
2023-01-30T11:09:47.574Z,14.27
2023-01-30T11:12:15.866Z,13.63
2023-01-30T11:14:59.802Z,14.67
2023-01-30T11:17:45.864Z,15.65
2023-01-30T11:20:22.648Z,15.18
2023-01-30T11:23:08.307Z,16.42
2023-01-30T11:26:02.321Z,13.25
2023-01-30T11:28:44.199Z,14.05
2023-01-30T11:31:38.949Z,13.13
2023-01-30T11:34:17.955Z,12.93
2023-01-30T11:36:49.579Z,15.32
2023-01-30T11:39:20.499Z,15.88
2023-01-30T11:41:54.374Z,13.98
2023-01-30T11:44:40.872Z,11.48
2023-01-30T11:47:27.344Z,11.82
2023-01-30T11:50:12.051Z,12.43
2023-01-30T11:52:48.177Z,15.43
2023-01-30T11:55:19.757Z,12.75
2023-01-30T11:57:54.485Z,13.80
2023-01-30T12:00:38.411Z,16.80
2023-01-30T12:03:18.383Z,13.00
2023-01-30T12:05:47.497Z,17.08
2023-01-30T12:08:31.106Z,10.90
2023-01-30T12:11:03.393Z,15.65
2023-01-30T12:13:45.588Z,16.60
2023-01-30T12:16:39.667Z,15.73
2023-01-30T12:20:00.079Z,47.90
2023-01-30T12:22:59.023Z,53.45
2023-01-30T12:25:35.762Z,32.17
2023-01-30T12:28:33.844Z,41.65
2023-01-30T12:31:28.670Z,29.70
2023-01-30T12:33:56.748Z,13.88
2023-01-30T12:37:05.428Z,13.50
2023-01-30T12:39:50.487Z,18.90
2023-01-30T12:42:18.977Z,13.38
2023-01-30T12:45:19.599Z,13.93
2023-01-30T12:48:21.674Z,12.90
2023-01-30T12:51:33.464Z,15.32
2023-01-30T12:54:21.459Z,19.98
2023-01-30T12:57:15.141Z,16.05
2023-01-30T13:00:11.707Z,17.23
2023-01-30T13:03:15.333Z,15.63
2023-01-30T13:06:12.049Z,12.60
2023-01-30T13:09:05.396Z,14.27
2023-01-30T13:12:20.191Z,16.33
2023-01-30T13:15:14.341Z,12.23
2023-01-30T13:17:53.119Z,16.08
2023-01-30T13:21:06.783Z,17.95
2023-01-30T13:23:43.515Z,16.98
2023-01-30T13:26:32.205Z,15.93
2023-01-30T13:29:12.042Z,18.08
2023-01-30T13:31:50.882Z,23.02
2023-01-30T13:37:13.170Z,17.60
2023-01-30T13:39:47.949Z,21.48
2023-01-30T13:42:50.694Z,23.60
2023-01-30T13:45:28.501Z,26.23
2023-01-30T13:48:14.632Z,27.40
2023-01-30T13:51:10.004Z,30.30
2023-01-30T13:54:03.391Z,25.73
2023-01-30T13:57:07.889Z,28.45
2023-01-30T14:00:10.712Z,23.40
2023-01-30T14:03:03.907Z,34.38
2023-01-30T14:05:54.226Z,29.27
2023-01-30T14:08:28.636Z,32.65
2023-01-30T14:10:57.531Z,32.95
2023-01-30T14:13:27.616Z,31.48
2023-01-30T14:16:04.745Z,30.63
2023-01-30T14:18:38.838Z,28.77
2023-01-30T14:21:25.030Z,30.80
2023-01-30T14:24:07.180Z,33.55
2023-01-30T14:26:50.616Z,35.20
2023-01-30T14:29:42.415Z,31.95
2023-01-30T14:32:13.785Z,36.03
2023-01-30T14:35:03.047Z,27.77
2023-01-30T14:37:39.382Z,32.63
2023-01-30T14:40:22.201Z,35.97
2023-01-30T14:43:16.855Z,31.88
2023-01-30T14:45:56.815Z,30.80
2023-01-30T14:49:01.074Z,32.15
2023-01-30T14:51:39.150Z,34.50
2023-01-30T14:54:13.309Z,34.42
2023-01-30T14:57:01.179Z,40.08
2023-01-30T15:00:15.064Z,42.90
2023-01-30T15:02:59.172Z,41.30
2023-01-30T15:05:39.103Z,34.58
2023-01-30T15:08:20.372Z,37.58
2023-01-30T15:11:16.943Z,36.85
2023-01-30T15:14:01.967Z,34.53
2023-01-30T15:17:20.252Z,48.08
2023-01-30T15:20:18.668Z,43.67
2023-01-30T15:23:08.684Z,50.38
2023-01-30T15:25:57.768Z,57.92
2023-01-30T15:28:51.695Z,49.25
2023-01-30T15:31:23.287Z,56.42
2023-01-30T15:33:54.475Z,57.40
2023-01-30T15:36:36.537Z,54.65
2023-01-30T15:39:21.723Z,55.95
2023-01-30T15:41:57.256Z,63.20
2023-01-30T15:44:53.503Z,65.43
2023-01-30T15:47:40.007Z,63.13
2023-01-30T15:50:10.344Z,63.08
2023-01-30T15:52:49.372Z,61.35
2023-01-30T15:55:31.350Z,71.97
2023-01-30T15:58:10.986Z,83.00
2023-01-30T16:00:49.114Z,70.18
2023-01-30T16:03:36.801Z,86.05
2023-01-30T16:06:05.201Z,85.40
2023-01-30T16:08:37.153Z,79.68
2023-01-30T16:11:04.885Z,87.63
2023-01-30T16:13:33.437Z,88.70
2023-01-30T16:16:09.065Z,85.72
2023-01-30T16:18:57.749Z,73.30
2023-01-30T16:21:40.229Z,68.40
2023-01-30T16:24:24.915Z,64.65
2023-01-30T16:27:01.266Z,67.95
2023-01-30T16:29:33.683Z,66.72
2023-01-30T16:32:01.716Z,70.82
2023-01-30T16:34:36.363Z,75.22
2023-01-30T16:37:20.986Z,86.38
2023-01-30T16:40:23.797Z,71.97
2023-01-30T16:43:04.101Z,67.97
2023-01-30T16:45:34.640Z,80.63
2023-01-30T16:48:16.891Z,67.82
2023-01-30T16:50:47.441Z,73.22
2023-01-30T16:53:24.271Z,71.70
2023-01-30T16:56:09.938Z,83.15
2023-01-30T16:58:38.882Z,79.85
2023-01-30T17:01:08.967Z,75.88
2023-01-30T17:03:48.724Z,82.20
2023-01-30T17:06:42.998Z,87.55
2023-01-30T17:09:44.680Z,82.75
2023-01-30T17:12:31.244Z,91.15
2023-01-30T17:15:13.681Z,91.68
2023-01-30T17:17:41.988Z,96.10
2023-01-30T17:20:13.242Z,92.65
2023-01-30T17:22:44.997Z,99.15
2023-01-30T17:25:31.185Z,96.40
2023-01-30T17:27:59.633Z,112.80
2023-01-30T17:30:27.131Z,110.13
2023-01-30T17:33:03.785Z,103.35
2023-01-30T17:38:57.589Z,127.72
2023-01-30T17:41:33.586Z,119.75
2023-01-30T17:44:01.424Z,106.70
2023-01-30T17:46:45.650Z,105.13
2023-01-30T17:49:20.033Z,110.78
2023-01-30T17:51:48.324Z,115.53
2023-01-30T17:54:16.984Z,118.65
2023-01-30T17:57:04.793Z,117.65
2023-01-30T17:59:33.501Z,124.07
2023-01-30T18:02:19.893Z,122.10
2023-01-30T18:04:51.710Z,111.82
2023-01-30T18:11:52.325Z,122.18
2023-01-30T18:14:26.457Z,124.68
2023-01-30T18:17:00.212Z,121.82
2023-01-30T18:19:31.768Z,122.25
2023-01-30T18:22:00.224Z,121.97
2023-01-30T18:24:28.201Z,115.85
2023-01-30T18:26:56.046Z,118.15
2023-01-30T18:30:25.843Z,113.90
2023-01-30T18:42:45.682Z,108.50
2023-01-30T18:45:42.471Z,109.60
2023-01-30T18:48:11.078Z,120.10
2023-01-30T18:50:39.647Z,113.40
2023-01-30T18:53:07.986Z,127.30
2023-01-30T18:55:36.335Z,110.28
2023-01-30T18:58:03.820Z,133.57
2023-01-30T19:00:31.797Z,130.55
2023-01-30T19:02:59.578Z,131.73
2023-01-30T19:05:27.607Z,139.88
2023-01-30T19:07:55.740Z,140.95
2023-01-30T19:10:23.552Z,138.68
2023-01-30T19:13:09.863Z,137.57
2023-01-30T19:15:38.898Z,130.48
2023-01-30T19:18:06.447Z,143.18
2023-01-30T19:20:34.555Z,136.45
2023-01-30T19:23:02.132Z,126.30
2023-01-30T19:25:30.072Z,132.10
2023-01-30T19:27:57.790Z,132.23
2023-01-30T19:30:25.639Z,133.13
2023-01-30T19:32:54.340Z,132.07
2023-01-30T19:35:22.445Z,137.57
2023-01-30T19:37:50.273Z,141.02
2023-01-30T19:40:18.657Z,141.38
2023-01-30T19:42:47.300Z,150.95
2023-01-30T19:45:15.200Z,129.73
2023-01-30T19:47:42.823Z,129.52
2023-01-30T19:50:11.561Z,146.48
2023-01-30T19:52:40.890Z,156.95
2023-01-30T19:55:09.284Z,144.23
2023-01-30T19:57:36.814Z,142.13
2023-01-30T20:00:06.347Z,140.05
2023-01-30T20:02:34.078Z,180.18
2023-01-30T20:05:02.718Z,176.23
2023-01-30T20:07:34.679Z,171.45
2023-01-30T20:10:03.268Z,155.98
2023-01-30T20:12:32.149Z,154.10
2023-01-30T20:14:59.929Z,168.40
2023-01-30T20:17:27.645Z,174.55
2023-01-30T20:19:55.633Z,165.32
2023-01-30T20:22:23.966Z,194.95
2023-01-30T20:24:52.709Z,179.05
2023-01-30T20:27:21.224Z,198.70
2023-01-30T20:29:49.715Z,214.85
2023-01-30T20:32:17.290Z,213.80
2023-01-30T20:34:45.558Z,240.48
2023-01-30T20:37:13.171Z,218.25
2023-01-30T20:39:41.084Z,134.48
2023-01-30T20:42:08.872Z,123.78
2023-01-30T20:44:37.379Z,111.65
2023-01-30T20:47:05.961Z,127.68
2023-01-30T20:49:34.725Z,143.00
2023-01-30T20:52:03.050Z,135.63
2023-01-30T20:54:31.949Z,119.80
2023-01-30T20:57:00.521Z,111.68
2023-01-30T20:59:28.720Z,110.45
2023-01-30T21:01:56.583Z,124.03
2023-01-30T21:04:24.782Z,122.22
2023-01-30T21:06:52.905Z,113.57
2023-01-30T21:09:23.382Z,120.97
2023-01-30T21:11:53.367Z,123.75
2023-01-30T21:14:23.331Z,119.07
2023-01-30T21:16:52.242Z,126.00
2023-01-30T21:19:20.364Z,124.03
2023-01-30T21:21:55.201Z,125.07
2023-01-30T21:24:28.477Z,123.55
2023-01-30T21:26:57.080Z,131.27
2023-01-30T21:29:28.284Z,130.23
2023-01-30T21:31:58.015Z,133.20
2023-01-30T21:34:26.369Z,124.75
2023-01-30T21:37:12.689Z,118.40
2023-01-30T21:39:59.348Z,107.28
2023-01-30T21:42:45.498Z,107.82
2023-01-30T21:45:13.615Z,99.32
2023-01-30T21:47:41.192Z,76.57
2023-01-30T21:50:10.337Z,77.30
2023-01-30T21:52:37.991Z,72.37
2023-01-30T21:55:06.337Z,66.32
2023-01-30T21:57:33.987Z,66.93
2023-01-30T22:00:01.885Z,77.28
2023-01-30T22:02:29.513Z,67.90
2023-01-30T22:04:57.361Z,65.72
2023-01-30T22:07:24.925Z,69.43
2023-01-30T22:09:52.841Z,68.90
2023-01-30T22:12:20.456Z,68.82
2023-01-30T22:15:10.681Z,76.70
2023-01-30T22:18:06.777Z,66.68
2023-01-30T22:20:35.345Z,72.28
2023-01-30T22:23:04.048Z,61.40
2023-01-30T22:25:32.598Z,64.97
2023-01-30T22:28:01.169Z,55.67
2023-01-30T22:30:29.615Z,70.38
2023-01-30T22:32:57.376Z,64.03
2023-01-30T22:35:25.740Z,64.60
2023-01-30T22:37:53.433Z,65.15
2023-01-30T22:40:21.423Z,65.32
2023-01-30T22:43:38.659Z,67.15
2023-01-30T22:46:08.901Z,64.32
2023-01-30T22:49:28.725Z,66.97
2023-01-30T22:54:26.051Z,73.43
2023-01-30T22:57:03.076Z,63.45
2023-01-30T22:59:33.953Z,59.53
2023-01-30T23:02:04.226Z,58.45
2023-01-30T23:04:32.057Z,61.15
2023-01-30T23:07:00.092Z,61.95
2023-01-30T23:09:39.537Z,66.85
2023-01-30T23:12:45.738Z,59.03
2023-01-30T23:18:41.599Z,65.15
2023-01-30T23:21:51.381Z,67.50
2023-01-30T23:24:41.364Z,54.65
2023-01-30T23:27:46.657Z,61.90
2023-01-30T23:30:40.190Z,67.00
2023-01-30T23:33:07.986Z,75.97
2023-01-30T23:35:45.268Z,66.28
2023-01-30T23:38:15.792Z,70.28
2023-01-30T23:44:11.744Z,72.45
2023-01-30T23:47:00.089Z,63.45
2023-01-30T23:49:46.829Z,63.28
2023-01-30T23:52:55.062Z,66.57
2023-01-30T23:59:09.207Z,81.53
